Time;durP1;ratioP1;P1;durP2;ratioP2;P2;SDS_P1;SDS_P2;PMS_P1;PMS_P2;Temp;Humidity;BMP_temperature;BMP_pressure;BME280_temperature;BME280_humidity;BME280_pressure;Samples;Min_cycle;Max_cycle;Signal;HPM_P1;HPM_P2
2022/12/12 00:02:01;;;;;;;61.40;29.85;;;;;;;;;;5094089;28;20664;-66
2022/12/12 00:04:29;;;;;;;62.72;30.30;;;;;;;;;;5094484;28;20214;-65
2022/12/12 00:06:56;;;;;;;59.13;30.48;;;;;;;;;;5094214;28;20287;-65
2022/12/12 00:09:23;;;;;;;72.43;32.92;;;;;;;;;;5094216;28;20684;-65
2022/12/12 00:11:51;;;;;;;74.25;30.98;;;;;;;;;;5094280;28;20194;-65
2022/12/12 00:14:18;;;;;;;63.22;33.00;;;;;;;;;;5093895;28;20682;-65
2022/12/12 00:16:45;;;;;;;62.88;31.55;;;;;;;;;;5094294;28;20204;-65
2022/12/12 00:19:14;;;;;;;69.90;31.33;;;;;;;;;;5094162;28;20196;-66
2022/12/12 00:21:41;;;;;;;63.42;31.45;;;;;;;;;;5094211;28;20298;-65
2022/12/12 00:24:08;;;;;;;61.40;32.08;;;;;;;;;;5093709;28;20692;-65
2022/12/12 00:26:36;;;;;;;69.07;34.90;;;;;;;;;;5094526;28;20200;-66
2022/12/12 00:29:04;;;;;;;74.00;31.15;;;;;;;;;;5093717;28;20198;-65
2022/12/12 00:31:31;;;;;;;58.20;30.88;;;;;;;;;;5094014;28;20259;-65
2022/12/12 00:33:58;;;;;;;70.28;33.25;;;;;;;;;;5093827;28;20251;-65
2022/12/12 00:36:28;;;;;;;69.82;32.13;;;;;;;;;;5093594;28;20649;-65
2022/12/12 00:38:56;;;;;;;70.97;32.92;;;;;;;;;;5094103;28;20552;-65
2022/12/12 00:41:23;;;;;;;72.57;31.80;;;;;;;;;;5094268;28;20196;-65
2022/12/12 00:43:51;;;;;;;64.70;32.00;;;;;;;;;;5093322;28;20302;-66
2022/12/12 00:46:19;;;;;;;64.13;31.67;;;;;;;;;;5093712;28;20192;-65
2022/12/12 00:48:46;;;;;;;60.72;31.35;;;;;;;;;;5093614;28;20203;-65
2022/12/12 00:51:16;;;;;;;63.53;30.65;;;;;;;;;;5093347;28;20194;-65
2022/12/12 00:53:45;;;;;;;60.28;31.00;;;;;;;;;;5093167;28;20216;-65
2022/12/12 00:56:12;;;;;;;59.88;31.38;;;;;;;;;;5093526;28;20195;-65
2022/12/12 00:58:39;;;;;;;68.85;33.42;;;;;;;;;;5093417;28;20194;-65
2022/12/12 01:01:09;;;;;;;61.15;32.08;;;;;;;;;;5093342;28;20192;-66
2022/12/12 01:03:37;;;;;;;70.15;31.90;;;;;;;;;;5093375;28;20209;-65
2022/12/12 01:06:04;;;;;;;68.22;33.90;;;;;;;;;;5093142;28;20301;-66
2022/12/12 01:08:32;;;;;;;65.25;32.50;;;;;;;;;;5093645;28;20618;-65
2022/12/12 01:11:00;;;;;;;61.88;31.60;;;;;;;;;;5093691;28;20208;-65
2022/12/12 01:13:28;;;;;;;64.32;33.58;;;;;;;;;;5093504;28;20316;-65
2022/12/12 01:15:55;;;;;;;61.78;29.92;;;;;;;;;;5093481;28;20552;-65
2022/12/12 01:18:23;;;;;;;63.60;31.42;;;;;;;;;;5093313;28;20196;-65
2022/12/12 01:20:50;;;;;;;76.93;31.92;;;;;;;;;;5093125;28;20292;-65
2022/12/12 01:23:17;;;;;;;63.38;31.13;;;;;;;;;;5092856;28;20203;-65
2022/12/12 01:25:44;;;;;;;62.95;32.33;;;;;;;;;;5093111;28;20569;-65
2022/12/12 01:28:13;;;;;;;65.60;33.78;;;;;;;;;;5093190;28;20199;-65
2022/12/12 01:30:40;;;;;;;71.70;33.20;;;;;;;;;;5093173;28;20199;-65
2022/12/12 01:33:07;;;;;;;65.57;33.70;;;;;;;;;;5093321;28;20221;-65
2022/12/12 01:35:35;;;;;;;64.25;33.95;;;;;;;;;;5083015;28;20244;-65
2022/12/12 01:38:02;;;;;;;63.45;31.52;;;;;;;;;;5072886;28;20190;-65
2022/12/12 01:40:30;;;;;;;68.32;33.40;;;;;;;;;;5072577;28;20199;-66
2022/12/12 01:42:57;;;;;;;63.97;30.15;;;;;;;;;;5072954;28;20227;-65
2022/12/12 01:45:43;;;;;;;78.03;36.03;;;;;;;;;;5072537;28;20236;-65
2022/12/12 01:48:12;;;;;;;59.20;31.95;;;;;;;;;;5072884;28;20285;-65
2022/12/12 01:50:40;;;;;;;60.47;33.67;;;;;;;;;;5072346;28;20671;-65
2022/12/12 01:53:07;;;;;;;70.20;32.60;;;;;;;;;;5072737;28;20596;-65
2022/12/12 01:55:34;;;;;;;63.97;31.48;;;;;;;;;;5072663;28;20302;-65
2022/12/12 01:58:01;;;;;;;58.78;32.08;;;;;;;;;;5072420;28;20207;-65
2022/12/12 02:00:29;;;;;;;64.50;33.42;;;;;;;;;;5072582;28;20192;-65
2022/12/12 02:02:56;;;;;;;62.00;32.72;;;;;;;;;;5072713;28;20203;-65
2022/12/12 02:05:27;;;;;;;61.28;28.70;;;;;;;;;;5072267;28;20195;-65
2022/12/12 02:07:54;;;;;;;67.72;31.85;;;;;;;;;;5072949;28;20638;-65
2022/12/12 02:10:21;;;;;;;63.72;33.40;;;;;;;;;;5072426;28;20198;-66
2022/12/12 02:12:49;;;;;;;53.00;28.80;;;;;;;;;;5072883;28;20210;-65
2022/12/12 02:15:16;;;;;;;64.85;32.03;;;;;;;;;;5076297;28;20315;-65
2022/12/12 02:17:58;;;;;;;64.78;32.97;;;;;;;;;;5076081;28;20728;-65
2022/12/12 02:20:37;;;;;;;59.28;31.52;;;;;;;;;;5074233;28;20210;-65
2022/12/12 02:23:14;;;;;;;55.83;29.70;;;;;;;;;;5076427;28;20192;-65
2022/12/12 02:25:52;;;;;;;66.32;32.05;;;;;;;;;;5076189;28;20200;-65
2022/12/12 02:28:37;;;;;;;67.05;31.40;;;;;;;;;;5076500;28;20193;-65
2022/12/12 02:31:11;;;;;;;68.45;32.08;;;;;;;;;;5076222;28;20212;-65
2022/12/12 02:33:39;;;;;;;63.75;30.15;;;;;;;;;;5075743;28;20229;-65
2022/12/12 02:36:13;;;;;;;56.08;31.25;;;;;;;;;;5076016;28;20274;-65
2022/12/12 02:38:44;;;;;;;65.05;30.67;;;;;;;;;;5075787;28;20267;-64
2022/12/12 02:41:15;;;;;;;68.55;31.45;;;;;;;;;;5075999;28;20218;-65
2022/12/12 02:43:44;;;;;;;62.65;32.15;;;;;;;;;;5076771;28;20583;-65
2022/12/12 02:46:15;;;;;;;59.15;32.40;;;;;;;;;;5076046;28;20219;-65
2022/12/12 02:48:43;;;;;;;67.90;35.70;;;;;;;;;;5076410;28;20624;-65
2022/12/12 02:51:12;;;;;;;63.97;31.20;;;;;;;;;;5075720;28;20203;-65
2022/12/12 02:53:40;;;;;;;68.35;31.55;;;;;;;;;;5075972;28;20227;-65
2022/12/12 02:56:08;;;;;;;65.32;32.45;;;;;;;;;;5075633;28;20195;-65
2022/12/12 02:58:37;;;;;;;68.97;32.90;;;;;;;;;;5075281;28;20582;-65
2022/12/12 03:01:10;;;;;;;65.60;30.80;;;;;;;;;;5075149;28;20291;-65
2022/12/12 03:09:28;;;;;;;65.60;30.10;;;;;;;;;;5075289;28;20293;-65
2022/12/12 03:12:02;;;;;;;65.22;33.25;;;;;;;;;;5075622;28;20201;-64
2022/12/12 03:14:37;;;;;;;64.60;30.73;;;;;;;;;;5075226;28;20207;-65
2022/12/12 03:17:09;;;;;;;63.15;30.48;;;;;;;;;;5075421;28;20190;-65
2022/12/12 03:19:41;;;;;;;63.53;32.60;;;;;;;;;;5075370;28;20195;-65
2022/12/12 03:22:12;;;;;;;68.00;33.92;;;;;;;;;;5075139;28;20195;-65
2022/12/12 03:24:43;;;;;;;69.30;31.80;;;;;;;;;;5074748;28;20210;-65
2022/12/12 03:27:13;;;;;;;71.47;32.80;;;;;;;;;;5075088;28;20182;-64
2022/12/12 03:29:41;;;;;;;69.00;34.20;;;;;;;;;;5075344;28;20196;-64
2022/12/12 03:32:12;;;;;;;70.97;33.90;;;;;;;;;;5074508;28;20228;-66
2022/12/12 03:34:43;;;;;;;68.32;34.35;;;;;;;;;;5074777;28;20226;-64
2022/12/12 03:37:12;;;;;;;63.65;30.92;;;;;;;;;;5074990;28;20188;-65
2022/12/12 03:39:41;;;;;;;59.92;31.10;;;;;;;;;;5074902;28;20196;-65
2022/12/12 03:42:09;;;;;;;67.78;33.22;;;;;;;;;;5074703;28;20578;-65
2022/12/12 03:44:38;;;;;;;68.10;33.75;;;;;;;;;;5074834;28;20198;-66
2022/12/12 03:47:08;;;;;;;70.30;33.38;;;;;;;;;;5074641;28;20212;-65
2022/12/12 03:49:39;;;;;;;64.22;31.92;;;;;;;;;;5074306;28;20656;-65
2022/12/12 03:52:10;;;;;;;72.18;33.65;;;;;;;;;;5074705;28;20186;-65
2022/12/12 03:54:40;;;;;;;67.80;32.83;;;;;;;;;;5074790;28;20715;-65
2022/12/12 03:57:10;;;;;;;71.47;32.80;;;;;;;;;;5074345;28;20201;-65
2022/12/12 03:59:40;;;;;;;63.90;32.78;;;;;;;;;;5074152;28;20188;-65
2022/12/12 04:02:11;;;;;;;70.57;35.75;;;;;;;;;;5074486;28;20220;-64
2022/12/12 04:04:40;;;;;;;58.75;32.85;;;;;;;;;;5074502;28;20269;-65
2022/12/12 04:07:11;;;;;;;71.63;34.47;;;;;;;;;;5074159;28;20191;-64
2022/12/12 04:15:19;;;;;;;62.78;33.05;;;;;;;;;;5073862;28;20241;-65
2022/12/12 04:17:50;;;;;;;66.82;33.65;;;;;;;;;;5073967;28;20187;-65
2022/12/12 04:23:17;;;;;;;61.78;31.67;;;;;;;;;;5073624;28;20186;-65
2022/12/12 04:28:45;;;;;;;73.57;32.33;;;;;;;;;;5073780;28;20178;-66
2022/12/12 04:31:12;;;;;;;69.75;33.63;;;;;;;;;;5074054;28;20221;-65
2022/12/12 04:33:42;;;;;;;71.32;34.80;;;;;;;;;;5073649;28;20290;-65
2022/12/12 04:36:10;;;;;;;85.80;34.42;;;;;;;;;;5072947;28;20195;-65
2022/12/12 04:38:39;;;;;;;67.35;33.75;;;;;;;;;;5073691;28;20191;-65
2022/12/12 04:41:07;;;;;;;67.30;31.92;;;;;;;;;;5074027;28;20199;-65
2022/12/12 04:43:36;;;;;;;70.47;32.38;;;;;;;;;;5073868;28;20323;-65
2022/12/12 04:46:05;;;;;;;69.95;34.20;;;;;;;;;;5073248;28;20201;-66
2022/12/12 04:48:34;;;;;;;69.25;33.33;;;;;;;;;;5073130;28;20208;-65
2022/12/12 04:51:03;;;;;;;69.72;35.08;;;;;;;;;;5073572;28;20290;-65
2022/12/12 04:53:33;;;;;;;75.75;33.33;;;;;;;;;;5073391;28;20199;-65
2022/12/12 04:56:05;;;;;;;70.95;35.25;;;;;;;;;;5072580;28;20192;-65
2022/12/12 04:58:33;;;;;;;69.47;34.22;;;;;;;;;;5072080;28;20541;-65
2022/12/12 05:01:04;;;;;;;64.72;32.40;;;;;;;;;;5071992;28;20192;-65
2022/12/12 05:03:34;;;;;;;68.80;33.80;;;;;;;;;;5072395;28;20183;-65
2022/12/12 05:06:03;;;;;;;72.78;33.28;;;;;;;;;;5072561;28;20188;-65
2022/12/12 05:08:33;;;;;;;76.50;34.90;;;;;;;;;;5072295;28;20202;-65
2022/12/12 05:11:02;;;;;;;78.47;35.38;;;;;;;;;;5072268;28;20559;-65
2022/12/12 05:13:36;;;;;;;70.53;34.17;;;;;;;;;;5072384;28;20504;-65
2022/12/12 05:16:05;;;;;;;69.63;32.15;;;;;;;;;;5072728;28;20274;-65
2022/12/12 05:18:32;;;;;;;66.32;33.90;;;;;;;;;;5072307;28;20274;-65
2022/12/12 05:20:59;;;;;;;70.13;35.03;;;;;;;;;;5072461;28;20195;-65
2022/12/12 05:23:26;;;;;;;78.25;33.40;;;;;;;;;;5072786;28;20207;-65
2022/12/12 05:25:53;;;;;;;58.70;31.90;;;;;;;;;;5083012;28;20195;-71
2022/12/12 05:28:22;;;;;;;79.18;36.25;;;;;;;;;;5092637;28;20644;-65
2022/12/12 05:30:49;;;;;;;69.82;33.55;;;;;;;;;;5093153;28;20194;-64
2022/12/12 05:33:16;;;;;;;69.70;33.97;;;;;;;;;;5093103;28;20196;-65
2022/12/12 05:35:43;;;;;;;68.55;34.20;;;;;;;;;;5093212;28;20224;-65
2022/12/12 05:38:10;;;;;;;75.53;35.90;;;;;;;;;;5092367;28;20194;-64
2022/12/12 05:40:38;;;;;;;69.70;34.17;;;;;;;;;;5092239;28;20193;-65
2022/12/12 05:43:05;;;;;;;68.78;35.25;;;;;;;;;;5092637;28;20697;-66
2022/12/12 05:45:33;;;;;;;67.47;34.00;;;;;;;;;;5092922;28;20198;-64
2022/12/12 05:48:01;;;;;;;73.68;35.50;;;;;;;;;;5092952;28;20584;-64
2022/12/12 05:50:28;;;;;;;64.38;35.35;;;;;;;;;;5097167;28;20501;-64
2022/12/12 05:52:55;;;;;;;69.68;35.17;;;;;;;;;;5096679;28;20209;-64
2022/12/12 05:55:22;;;;;;;71.03;35.10;;;;;;;;;;5096867;28;20601;-64
2022/12/12 05:57:49;;;;;;;61.42;33.33;;;;;;;;;;5096787;28;20197;-65
2022/12/12 06:00:17;;;;;;;69.35;32.10;;;;;;;;;;5096952;28;20284;-64
2022/12/12 06:02:45;;;;;;;61.25;32.78;;;;;;;;;;5096913;28;20195;-65
2022/12/12 06:05:12;;;;;;;62.30;33.55;;;;;;;;;;5096376;28;20202;-65
2022/12/12 06:07:39;;;;;;;70.00;32.28;;;;;;;;;;5096338;28;20656;-64
2022/12/12 06:10:07;;;;;;;68.90;35.22;;;;;;;;;;5096725;28;20202;-64
2022/12/12 06:12:34;;;;;;;63.00;32.53;;;;;;;;;;5096891;28;20197;-64
2022/12/12 06:15:02;;;;;;;65.13;34.88;;;;;;;;;;5096583;28;20304;-65
2022/12/12 06:17:29;;;;;;;68.10;34.38;;;;;;;;;;5096267;28;20199;-65
2022/12/12 06:19:58;;;;;;;69.47;32.97;;;;;;;;;;5096448;28;20235;-64
2022/12/12 06:22:25;;;;;;;61.55;32.95;;;;;;;;;;5096354;28;20199;-64
2022/12/12 06:24:52;;;;;;;67.78;31.73;;;;;;;;;;5096018;28;20295;-65
2022/12/12 06:27:19;;;;;;;58.80;33.70;;;;;;;;;;5096204;28;20201;-64
2022/12/12 06:29:46;;;;;;;65.35;32.00;;;;;;;;;;5096326;28;20615;-65
2022/12/12 06:32:14;;;;;;;63.03;37.10;;;;;;;;;;5096301;28;20639;-64
2022/12/12 06:34:41;;;;;;;58.78;32.35;;;;;;;;;;5096192;28;20313;-64
2022/12/12 06:37:10;;;;;;;67.82;33.38;;;;;;;;;;5096390;28;20203;-64
2022/12/12 06:39:37;;;;;;;69.68;33.00;;;;;;;;;;5095805;28;20200;-66
2022/12/12 06:42:05;;;;;;;64.32;31.48;;;;;;;;;;5095718;28;20223;-64
2022/12/12 06:44:33;;;;;;;62.15;34.28;;;;;;;;;;5095115;28;20192;-64
2022/12/12 06:47:00;;;;;;;73.53;33.88;;;;;;;;;;5094920;28;20195;-64
2022/12/12 06:49:27;;;;;;;67.18;34.30;;;;;;;;;;5094463;28;20202;-64
2022/12/12 06:51:54;;;;;;;61.92;32.22;;;;;;;;;;5094564;28;20648;-64
2022/12/12 06:54:23;;;;;;;68.07;34.22;;;;;;;;;;5095007;28;20554;-65
2022/12/12 06:56:50;;;;;;;65.03;33.17;;;;;;;;;;5094388;28;20202;-64
2022/12/12 06:59:17;;;;;;;71.75;34.58;;;;;;;;;;5094208;28;20567;-64
2022/12/12 07:01:45;;;;;;;71.50;37.08;;;;;;;;;;5094590;28;20558;-64
2022/12/12 07:04:13;;;;;;;73.85;35.80;;;;;;;;;;5094531;28;20195;-64
2022/12/12 07:06:40;;;;;;;63.42;35.38;;;;;;;;;;5094340;28;20315;-64
2022/12/12 07:09:07;;;;;;;63.70;33.00;;;;;;;;;;5094491;28;20294;-64
2022/12/12 07:11:36;;;;;;;75.22;34.67;;;;;;;;;;5094733;28;20198;-64
2022/12/12 07:14:04;;;;;;;68.88;35.20;;;;;;;;;;5094046;28;20200;-64
2022/12/12 07:16:31;;;;;;;70.53;34.97;;;;;;;;;;5094402;28;20218;-64
2022/12/12 07:18:58;;;;;;;74.85;37.72;;;;;;;;;;5094025;28;20199;-65
2022/12/12 07:21:26;;;;;;;74.63;34.97;;;;;;;;;;5094269;28;20198;-64
2022/12/12 07:23:53;;;;;;;70.75;37.85;;;;;;;;;;5094295;28;20537;-64
2022/12/12 07:26:21;;;;;;;70.15;38.10;;;;;;;;;;5094322;28;20199;-64
2022/12/12 07:28:50;;;;;;;72.35;35.58;;;;;;;;;;5094343;28;20604;-64
2022/12/12 07:31:18;;;;;;;73.32;36.90;;;;;;;;;;5094329;28;20192;-64
2022/12/12 07:33:46;;;;;;;68.25;34.63;;;;;;;;;;5094437;28;20290;-65
2022/12/12 07:36:13;;;;;;;71.85;33.95;;;;;;;;;;5093806;28;20230;-65
2022/12/12 07:38:40;;;;;;;78.88;37.88;;;;;;;;;;5093806;28;20200;-64
2022/12/12 07:41:09;;;;;;;71.30;33.50;;;;;;;;;;5094345;28;20197;-64
2022/12/12 07:43:37;;;;;;;77.10;34.17;;;;;;;;;;5055590;28;1103982;-64
2022/12/12 07:46:08;;;;;;;69.72;36.72;;;;;;;;;;5094961;28;20221;-65
2022/12/12 07:48:35;;;;;;;59.60;32.08;;;;;;;;;;5095011;28;20182;-65
2022/12/12 07:51:02;;;;;;;62.55;33.17;;;;;;;;;;5094837;28;20234;-64
2022/12/12 07:53:30;;;;;;;60.42;31.33;;;;;;;;;;5094872;28;20230;-64
2022/12/12 07:55:57;;;;;;;62.58;34.28;;;;;;;;;;5094651;28;20223;-64
2022/12/12 07:58:24;;;;;;;58.83;33.08;;;;;;;;;;5095199;28;20562;-64
2022/12/12 08:00:51;;;;;;;62.30;34.67;;;;;;;;;;5094597;28;20537;-64
2022/12/12 08:03:20;;;;;;;65.50;32.95;;;;;;;;;;5094658;28;20559;-65
2022/12/12 08:05:47;;;;;;;60.13;33.03;;;;;;;;;;5094467;28;20199;-64
2022/12/12 08:08:14;;;;;;;64.95;32.92;;;;;;;;;;5094548;28;20194;-64
2022/12/12 08:10:42;;;;;;;60.50;33.75;;;;;;;;;;5093679;28;20195;-64
2022/12/12 08:13:09;;;;;;;69.28;34.47;;;;;;;;;;5094394;28;20199;-64
2022/12/12 08:15:36;;;;;;;71.13;33.25;;;;;;;;;;5094573;28;20219;-64
2022/12/12 08:18:03;;;;;;;65.13;32.65;;;;;;;;;;5094868;28;20221;-64
2022/12/12 08:20:32;;;;;;;65.65;34.88;;;;;;;;;;5094394;28;20190;-65
2022/12/12 08:22:59;;;;;;;63.25;35.35;;;;;;;;;;5094286;28;20196;-64
2022/12/12 08:25:26;;;;;;;73.88;39.95;;;;;;;;;;5093834;28;20210;-64
2022/12/12 08:27:54;;;;;;;67.15;36.03;;;;;;;;;;5094275;28;20195;-64
2022/12/12 08:30:21;;;;;;;63.15;34.85;;;;;;;;;;5093790;28;20710;-64
2022/12/12 08:32:48;;;;;;;66.93;36.05;;;;;;;;;;5093812;28;20191;-64
2022/12/12 08:35:16;;;;;;;73.47;36.20;;;;;;;;;;5093544;28;20215;-64
2022/12/12 08:37:44;;;;;;;66.60;30.90;;;;;;;;;;5093957;28;20236;-64
2022/12/12 08:40:12;;;;;;;64.72;33.63;;;;;;;;;;5093421;28;20196;-64
2022/12/12 08:42:39;;;;;;;62.17;32.75;;;;;;;;;;5094136;28;20579;-64
2022/12/12 08:45:07;;;;;;;66.00;34.72;;;;;;;;;;5093434;28;20207;-64
2022/12/12 08:47:34;;;;;;;64.97;33.95;;;;;;;;;;5094354;28;20203;-64
2022/12/12 08:50:01;;;;;;;60.15;31.85;;;;;;;;;;5093378;28;20194;-64
2022/12/12 08:52:28;;;;;;;67.70;34.03;;;;;;;;;;5093443;28;20197;-64
2022/12/12 08:54:57;;;;;;;57.95;32.35;;;;;;;;;;5093253;28;20281;-64
2022/12/12 08:57:24;;;;;;;54.35;32.88;;;;;;;;;;5093611;28;20199;-65
2022/12/12 08:59:51;;;;;;;58.20;32.08;;;;;;;;;;5093177;28;20285;-64
2022/12/12 09:02:19;;;;;;;70.55;34.10;;;;;;;;;;5093066;28;20597;-64
2022/12/12 09:04:46;;;;;;;67.75;34.40;;;;;;;;;;5093245;28;20205;-64
2022/12/12 09:07:13;;;;;;;64.07;32.88;;;;;;;;;;5093067;28;20195;-65
2022/12/12 09:09:40;;;;;;;73.43;33.60;;;;;;;;;;5093120;28;20195;-65
2022/12/12 09:12:09;;;;;;;61.85;32.30;;;;;;;;;;5092951;28;20514;-64
2022/12/12 09:14:36;;;;;;;53.25;31.75;;;;;;;;;;5093121;28;20244;-64
2022/12/12 09:17:03;;;;;;;56.75;29.45;;;;;;;;;;5093286;28;20221;-65
2022/12/12 09:19:30;;;;;;;58.58;32.25;;;;;;;;;;5093021;28;20197;-64
2022/12/12 09:21:58;;;;;;;68.50;33.33;;;;;;;;;;5093117;28;20652;-64
2022/12/12 09:24:25;;;;;;;57.70;29.38;;;;;;;;;;5093309;28;20217;-64
2022/12/12 09:26:52;;;;;;;59.05;32.72;;;;;;;;;;5093156;28;20276;-64
2022/12/12 09:29:20;;;;;;;52.97;29.90;;;;;;;;;;5093222;28;20192;-64
2022/12/12 09:31:48;;;;;;;57.55;29.35;;;;;;;;;;5092742;28;20230;-64
2022/12/12 09:34:15;;;;;;;62.05;30.60;;;;;;;;;;5093141;28;20194;-64
2022/12/12 09:36:42;;;;;;;51.72;30.70;;;;;;;;;;5092676;28;20219;-64
2022/12/12 09:39:09;;;;;;;57.95;32.60;;;;;;;;;;5092813;28;20196;-64
2022/12/12 09:41:37;;;;;;;53.83;32.03;;;;;;;;;;5093132;28;20202;-64
2022/12/12 09:44:07;;;;;;;56.58;32.30;;;;;;;;;;5093303;28;20186;-64
2022/12/12 09:46:38;;;;;;;54.95;32.45;;;;;;;;;;5093021;28;20370;-64
2022/12/12 09:49:08;;;;;;;55.10;32.92;;;;;;;;;;5093182;28;20184;-65
2022/12/12 09:51:36;;;;;;;56.60;31.95;;;;;;;;;;5093111;28;20201;-64
2022/12/12 09:54:03;;;;;;;60.65;31.90;;;;;;;;;;5092769;28;20195;-64
2022/12/12 09:56:36;;;;;;;55.13;31.83;;;;;;;;;;5092893;28;20546;-64
2022/12/12 09:59:06;;;;;;;61.05;31.23;;;;;;;;;;5093272;28;20186;-64
2022/12/12 10:01:35;;;;;;;60.38;31.90;;;;;;;;;;5093216;28;20184;-66
2022/12/12 10:04:10;;;;;;;59.08;31.48;;;;;;;;;;5092967;28;20201;-64
2022/12/12 10:06:42;;;;;;;58.22;33.30;;;;;;;;;;5093097;28;20186;-64
2022/12/12 10:09:24;;;;;;;62.63;35.15;;;;;;;;;;5093117;28;20203;-64
2022/12/12 10:11:53;;;;;;;65.57;32.45;;;;;;;;;;5093274;28;20286;-65
2022/12/12 10:14:24;;;;;;;56.95;32.10;;;;;;;;;;5092513;28;20725;-64
2022/12/12 10:16:51;;;;;;;53.22;31.45;;;;;;;;;;5092835;28;20251;-64
2022/12/12 10:19:22;;;;;;;52.08;30.88;;;;;;;;;;5092952;28;20201;-64
2022/12/12 10:21:50;;;;;;;55.15;31.42;;;;;;;;;;5092992;28;20193;-64
2022/12/12 10:24:24;;;;;;;61.60;28.88;;;;;;;;;;5092743;28;20201;-64
2022/12/12 10:26:51;;;;;;;52.72;30.60;;;;;;;;;;5092663;28;20191;-65
2022/12/12 10:29:19;;;;;;;52.50;30.30;;;;;;;;;;5092679;28;20738;-64
2022/12/12 10:31:49;;;;;;;55.97;30.55;;;;;;;;;;5092564;28;20246;-65
2022/12/12 10:34:25;;;;;;;54.00;31.60;;;;;;;;;;5093459;28;20196;-64
2022/12/12 10:36:59;;;;;;;53.78;29.55;;;;;;;;;;5096034;28;20207;-64
2022/12/12 10:39:33;;;;;;;58.05;31.20;;;;;;;;;;5096769;28;20207;-65
2022/12/12 10:42:02;;;;;;;56.95;31.42;;;;;;;;;;5095838;28;20759;-65
2022/12/12 10:44:40;;;;;;;54.55;30.00;;;;;;;;;;5096484;28;20189;-65
2022/12/12 10:47:09;;;;;;;55.38;29.35;;;;;;;;;;5096703;28;20196;-64
2022/12/12 10:49:37;;;;;;;51.45;29.98;;;;;;;;;;5096174;28;20294;-64
2022/12/12 10:52:07;;;;;;;52.15;30.38;;;;;;;;;;5096011;28;20210;-64
2022/12/12 10:54:36;;;;;;;63.85;33.80;;;;;;;;;;5096086;28;20205;-64
2022/12/12 10:57:07;;;;;;;52.75;30.80;;;;;;;;;;5095838;28;20221;-64
2022/12/12 10:59:42;;;;;;;45.50;27.80;;;;;;;;;;5095669;28;20238;-64
2022/12/12 11:02:21;;;;;;;54.00;28.55;;;;;;;;;;5095796;28;20196;-64
2022/12/12 11:04:48;;;;;;;55.53;31.33;;;;;;;;;;5096022;28;20273;-64
2022/12/12 11:07:20;;;;;;;55.17;28.48;;;;;;;;;;5095396;28;20206;-64
2022/12/12 11:09:47;;;;;;;56.97;31.77;;;;;;;;;;5095679;28;20198;-64
2022/12/12 11:12:16;;;;;;;53.95;29.42;;;;;;;;;;5095323;28;20291;-64
2022/12/12 11:14:46;;;;;;;52.97;31.55;;;;;;;;;;5095336;28;20192;-65
2022/12/12 11:17:21;;;;;;;58.20;31.77;;;;;;;;;;5095460;28;20571;-64
2022/12/12 11:19:48;;;;;;;52.72;31.05;;;;;;;;;;5095495;28;20208;-64
2022/12/12 11:22:16;;;;;;;49.25;30.75;;;;;;;;;;5095347;28;20194;-64
2022/12/12 11:24:46;;;;;;;59.70;33.50;;;;;;;;;;5095670;28;20638;-64
2022/12/12 11:27:20;;;;;;;49.53;28.85;;;;;;;;;;5095091;28;20230;-65
2022/12/12 11:29:48;;;;;;;49.60;29.73;;;;;;;;;;5095460;28;20188;-64
2022/12/12 11:32:17;;;;;;;53.22;29.92;;;;;;;;;;5095479;28;20201;-64
2022/12/12 11:34:46;;;;;;;56.17;31.83;;;;;;;;;;5095275;28;20217;-65
2022/12/12 11:37:15;;;;;;;57.20;30.80;;;;;;;;;;5094969;28;20224;-64
2022/12/12 11:39:45;;;;;;;50.35;32.38;;;;;;;;;;5095210;28;20285;-65
2022/12/12 11:42:20;;;;;;;51.75;31.55;;;;;;;;;;5094454;28;20225;-64
2022/12/12 11:44:48;;;;;;;60.40;33.60;;;;;;;;;;5094996;28;20197;-65
2022/12/12 11:47:20;;;;;;;57.00;32.58;;;;;;;;;;5094004;28;20204;-64
2022/12/12 11:49:54;;;;;;;51.47;30.45;;;;;;;;;;5094980;28;20215;-64
2022/12/12 11:52:23;;;;;;;61.15;33.22;;;;;;;;;;5095339;28;20196;-64
2022/12/12 11:54:51;;;;;;;65.18;36.35;;;;;;;;;;5094815;28;20203;-64
2022/12/12 11:57:24;;;;;;;65.38;34.45;;;;;;;;;;5094651;28;20219;-65
2022/12/12 11:59:59;;;;;;;66.35;33.83;;;;;;;;;;5094459;28;20210;-65
2022/12/12 12:02:40;;;;;;;50.65;31.98;;;;;;;;;;5094658;28;20536;-65
2022/12/12 12:05:15;;;;;;;57.30;32.78;;;;;;;;;;5094820;28;20192;-64
2022/12/12 12:07:47;;;;;;;65.82;33.95;;;;;;;;;;5094595;28;20205;-64
2022/12/12 12:10:17;;;;;;;52.70;32.90;;;;;;;;;;5094884;28;20200;-64
2022/12/12 12:12:54;;;;;;;65.60;33.20;;;;;;;;;;5094924;28;20202;-64
2022/12/12 12:15:30;;;;;;;62.90;34.55;;;;;;;;;;5094333;28;20186;-66
2022/12/12 12:18:03;;;;;;;57.17;32.40;;;;;;;;;;5094200;28;20268;-64
2022/12/12 12:20:39;;;;;;;69.45;36.70;;;;;;;;;;5094251;28;20184;-65
2022/12/12 12:23:10;;;;;;;63.35;35.58;;;;;;;;;;5094649;28;20190;-64
2022/12/12 12:25:44;;;;;;;66.95;34.60;;;;;;;;;;5094707;28;20545;-64
2022/12/12 12:28:23;;;;;;;61.60;33.78;;;;;;;;;;5094132;28;20496;-64
2022/12/12 12:30:52;;;;;;;54.50;35.05;;;;;;;;;;5094438;28;20622;-64
2022/12/12 12:33:30;;;;;;;69.38;36.70;;;;;;;;;;5093987;28;20195;-64
2022/12/12 12:36:02;;;;;;;60.85;34.70;;;;;;;;;;5094462;28;20277;-64
2022/12/12 12:38:40;;;;;;;66.88;35.22;;;;;;;;;;5094345;28;20185;-65
2022/12/12 12:41:13;;;;;;;52.17;31.85;;;;;;;;;;5094269;28;20200;-64
2022/12/12 12:43:49;;;;;;;69.22;34.15;;;;;;;;;;5093584;28;20318;-64
2022/12/12 12:46:19;;;;;;;60.55;34.00;;;;;;;;;;5093676;28;20193;-64
2022/12/12 12:48:48;;;;;;;59.10;34.45;;;;;;;;;;5093922;28;20195;-65
2022/12/12 12:51:19;;;;;;;60.08;30.85;;;;;;;;;;5094167;28;20221;-64
2022/12/12 12:53:49;;;;;;;61.88;31.80;;;;;;;;;;5093749;28;20187;-64
2022/12/12 12:56:21;;;;;;;54.30;32.38;;;;;;;;;;5094394;28;20224;-64
2022/12/12 12:58:50;;;;;;;58.22;32.95;;;;;;;;;;5093471;28;20634;-64
2022/12/12 13:01:19;;;;;;;59.80;32.90;;;;;;;;;;5093389;28;20200;-64
2022/12/12 13:03:48;;;;;;;54.13;29.10;;;;;;;;;;5093522;28;20194;-64
2022/12/12 13:06:19;;;;;;;58.85;31.75;;;;;;;;;;5093678;28;20203;-64
2022/12/12 13:08:51;;;;;;;50.08;31.08;;;;;;;;;;5093554;28;20632;-64
2022/12/12 13:11:21;;;;;;;56.05;32.40;;;;;;;;;;5093319;28;20204;-64
2022/12/12 13:13:52;;;;;;;53.90;30.23;;;;;;;;;;5093223;28;20197;-64
2022/12/12 13:16:21;;;;;;;63.58;34.75;;;;;;;;;;5093358;28;20185;-64
2022/12/12 13:18:50;;;;;;;58.42;32.42;;;;;;;;;;5093303;28;20552;-64
2022/12/12 13:21:23;;;;;;;55.45;31.45;;;;;;;;;;5093269;28;20202;-65
2022/12/12 13:23:55;;;;;;;51.95;32.28;;;;;;;;;;5093284;28;20183;-65
2022/12/12 13:26:25;;;;;;;51.03;31.02;;;;;;;;;;5093543;28;20187;-64
2022/12/12 13:28:56;;;;;;;53.30;29.42;;;;;;;;;;5093388;28;20200;-64
2022/12/12 13:31:30;;;;;;;46.05;28.42;;;;;;;;;;5093396;28;20189;-65
2022/12/12 13:34:02;;;;;;;49.72;30.23;;;;;;;;;;5093072;28;20286;-64
2022/12/12 13:36:32;;;;;;;47.83;29.48;;;;;;;;;;5092816;28;20297;-66
2022/12/12 13:39:00;;;;;;;51.85;29.75;;;;;;;;;;5093604;28;20193;-64
2022/12/12 13:41:27;;;;;;;46.42;30.50;;;;;;;;;;5092967;28;20206;-64
2022/12/12 13:43:58;;;;;;;53.80;30.35;;;;;;;;;;5092983;28;20226;-64
2022/12/12 13:46:43;;;;;;;49.95;29.05;;;;;;;;;;5093311;28;20184;-64
2022/12/12 13:49:22;;;;;;;47.72;25.38;;;;;;;;;;5092773;28;20267;-64
2022/12/12 13:51:49;;;;;;;47.92;26.13;;;;;;;;;;5093015;28;20241;-65
2022/12/12 13:54:34;;;;;;;48.65;27.08;;;;;;;;;;5092456;28;20206;-65
2022/12/12 13:57:11;;;;;;;45.03;27.77;;;;;;;;;;5092644;28;20218;-68
2022/12/12 13:59:57;;;;;;;40.70;25.85;;;;;;;;;;5092638;28;20180;-66
2022/12/12 14:02:31;;;;;;;42.55;26.02;;;;;;;;;;5093306;28;20552;-65
2022/12/12 14:05:09;;;;;;;42.60;23.40;;;;;;;;;;5093024;28;20349;-66
2022/12/12 14:07:36;;;;;;;45.65;25.45;;;;;;;;;;5093255;28;20191;-66
2022/12/12 14:10:17;;;;;;;41.47;24.90;;;;;;;;;;5094894;28;20199;-66
2022/12/12 14:12:44;;;;;;;41.28;25.02;;;;;;;;;;5096716;28;20734;-66
2022/12/12 14:15:19;;;;;;;44.83;26.08;;;;;;;;;;5096717;28;20201;-65
2022/12/12 14:17:57;;;;;;;44.97;24.98;;;;;;;;;;5097075;28;20298;-65
2022/12/12 14:20:26;;;;;;;47.15;24.20;;;;;;;;;;5096412;28;20193;-65
2022/12/12 14:23:13;;;;;;;45.42;26.00;;;;;;;;;;5096629;28;20282;-66
2022/12/12 14:25:41;;;;;;;43.88;25.27;;;;;;;;;;5091599;28;20190;-66
2022/12/12 14:28:19;;;;;;;46.78;25.60;;;;;;;;;;5093168;28;20214;-65
2022/12/12 14:31:01;;;;;;;39.78;24.70;;;;;;;;;;5079211;28;20649;-65
2022/12/12 14:33:44;;;;;;;41.15;24.05;;;;;;;;;;5082583;28;20200;-65
2022/12/12 14:36:22;;;;;;;49.97;25.45;;;;;;;;;;5095191;28;20190;-65
2022/12/12 14:38:55;;;;;;;50.45;27.08;;;;;;;;;;5095566;28;20191;-65
2022/12/12 14:41:28;;;;;;;45.08;26.38;;;;;;;;;;5095105;28;20285;-66
2022/12/12 14:43:57;;;;;;;42.53;25.95;;;;;;;;;;5095452;28;20559;-65
2022/12/12 14:46:24;;;;;;;36.83;23.90;;;;;;;;;;5095604;28;20195;-65
2022/12/12 14:49:03;;;;;;;49.00;27.00;;;;;;;;;;5095538;28;20199;-66